Time;durP1;ratioP1;P1;durP2;ratioP2;P2;SDS_P1;SDS_P2;PMS_P1;PMS_P2;Temp;Humidity;BMP_temperature;BMP_pressure;BME280_temperature;BME280_humidity;BME280_pressure;Samples;Min_cycle;Max_cycle;Signal;HPM_P1;HPM_P2
2022/05/16 00:00:25;;;;;;;3.60;1.40;;;;;;;;;;7386142;19;20437;-76
2022/05/16 00:02:52;;;;;;;2.03;1.40;;;;;;;;;;7388660;19;20006;-76
2022/05/16 00:05:19;;;;;;;1.13;1.02;;;;;;;;;;7384945;19;20595;-77
2022/05/16 00:07:44;;;;;;;4.03;1.15;;;;;;;;;;7389013;19;20326;-76
2022/05/16 00:10:10;;;;;;;1.25;1.15;;;;;;;;;;7385732;19;20078;-77
2022/05/16 00:12:35;;;;;;;2.35;1.25;;;;;;;;;;7386719;19;20026;-76
2022/05/16 00:15:03;;;;;;;2.20;1.25;;;;;;;;;;7384531;19;20011;-76
2022/05/16 00:17:28;;;;;;;4.03;1.33;;;;;;;;;;7384162;19;20475;-76
2022/05/16 00:19:53;;;;;;;1.73;1.10;;;;;;;;;;7385040;19;20006;-76
2022/05/16 00:22:19;;;;;;;1.17;1.00;;;;;;;;;;7385110;19;20515;-77
2022/05/16 00:24:44;;;;;;;3.88;1.80;;;;;;;;;;7387790;19;20002;-77
2022/05/16 00:27:11;;;;;;;3.17;1.40;;;;;;;;;;7384157;19;20021;-77
2022/05/16 00:29:37;;;;;;;5.47;1.70;;;;;;;;;;7384581;19;20007;-77
2022/05/16 00:32:03;;;;;;;2.90;1.33;;;;;;;;;;7385393;19;20003;-77
2022/05/16 00:34:29;;;;;;;4.18;1.67;;;;;;;;;;7386566;19;20021;-76
2022/05/16 00:36:54;;;;;;;1.85;1.30;;;;;;;;;;7388429;19;20003;-76
2022/05/16 00:39:21;;;;;;;5.65;1.50;;;;;;;;;;7382414;19;20011;-77
2022/05/16 00:41:47;;;;;;;3.75;1.58;;;;;;;;;;7389546;19;20011;-76
2022/05/16 00:44:14;;;;;;;1.60;1.40;;;;;;;;;;7394629;19;20006;-77
2022/05/16 00:46:39;;;;;;;2.72;1.42;;;;;;;;;;7394337;19;20014;-77
2022/05/16 00:49:09;;;;;;;3.65;2.40;;;;;;;;;;7390966;19;20014;-76
2022/05/16 00:51:41;;;;;;;4.25;1.60;;;;;;;;;;7393017;19;20015;-77
2022/05/16 00:54:15;;;;;;;3.40;1.50;;;;;;;;;;7391371;19;20013;-77
2022/05/16 00:56:41;;;;;;;7.57;1.75;;;;;;;;;;7394792;19;20025;-77
2022/05/16 00:59:07;;;;;;;5.75;1.80;;;;;;;;;;7392688;19;20098;-76
2022/05/16 01:07:03;;;;;;;5.22;1.70;;;;;;;;;;7394258;19;20357;-76
2022/05/16 01:09:29;;;;;;;1.90;1.40;;;;;;;;;;7390618;19;20098;-76
2022/05/16 01:11:55;;;;;;;2.15;1.33;;;;;;;;;;7393738;19;20014;-76
2022/05/16 01:14:45;;;;;;;2.88;1.40;;;;;;;;;;7393339;19;20014;-76
2022/05/16 01:17:11;;;;;;;1.38;1.25;;;;;;;;;;7392053;19;20078;-77
2022/05/16 01:19:37;;;;;;;2.63;1.25;;;;;;;;;;7391326;19;20018;-76
2022/05/16 01:22:26;;;;;;;4.47;1.70;;;;;;;;;;7390560;19;20017;-76
2022/05/16 01:24:53;;;;;;;4.15;1.48;;;;;;;;;;7393903;19;20010;-77
2022/05/16 01:27:18;;;;;;;5.85;1.55;;;;;;;;;;7392645;19;20010;-76
2022/05/16 01:29:43;;;;;;;1.65;1.35;;;;;;;;;;7390498;19;20358;-76
2022/05/16 01:32:10;;;;;;;1.92;1.33;;;;;;;;;;7390594;19;20026;-76
2022/05/16 01:34:36;;;;;;;3.47;1.50;;;;;;;;;;7393432;19;19995;-77
2022/05/16 01:37:01;;;;;;;3.67;1.50;;;;;;;;;;7389633;19;20073;-76
2022/05/16 01:39:27;;;;;;;3.97;1.52;;;;;;;;;;7390705;19;20002;-78
2022/05/16 01:41:52;;;;;;;2.28;1.30;;;;;;;;;;7392228;19;19999;-76
2022/05/16 01:44:18;;;;;;;3.05;1.60;;;;;;;;;;7393078;19;20446;-77
2022/05/16 01:46:43;;;;;;;1.85;1.33;;;;;;;;;;7390060;19;20049;-76
2022/05/16 01:49:10;;;;;;;2.75;1.35;;;;;;;;;;7391079;19;20003;-76
2022/05/16 01:51:35;;;;;;;1.63;1.52;;;;;;;;;;7387789;19;20413;-76
2022/05/16 01:54:03;;;;;;;8.60;2.75;;;;;;;;;;7391776;19;20002;-77
2022/05/16 01:56:29;;;;;;;2.85;1.65;;;;;;;;;;7388636;19;20526;-76
2022/05/16 01:58:54;;;;;;;4.03;1.80;;;;;;;;;;7391833;19;20158;-77
2022/05/16 02:01:21;;;;;;;1.70;1.30;;;;;;;;;;7390093;19;20074;-76
2022/05/16 02:03:48;;;;;;;2.38;1.50;;;;;;;;;;7393527;19;20023;-76
2022/05/16 02:06:14;;;;;;;2.95;2.03;;;;;;;;;;7389496;19;20011;-76
2022/05/16 02:08:39;;;;;;;2.28;1.77;;;;;;;;;;7392232;19;20027;-76
2022/05/16 02:11:06;;;;;;;2.10;1.60;;;;;;;;;;7387836;19;20823;-76
2022/05/16 02:13:33;;;;;;;5.32;1.52;;;;;;;;;;7392287;19;20043;-77
2022/05/16 02:15:59;;;;;;;3.35;1.70;;;;;;;;;;7390964;19;20002;-76
2022/05/16 02:18:25;;;;;;;3.55;1.95;;;;;;;;;;7390790;19;20006;-76
2022/05/16 02:20:51;;;;;;;2.42;1.88;;;;;;;;;;7386183;19;20007;-77
2022/05/16 02:26:01;;;;;;;6.90;1.80;;;;;;;;;;7391619;19;20041;-76
2022/05/16 02:28:26;;;;;;;3.15;1.73;;;;;;;;;;7392550;19;19997;-76
2022/05/16 02:30:53;;;;;;;2.63;1.63;;;;;;;;;;7384155;19;20101;-76
2022/05/16 02:33:19;;;;;;;5.05;1.95;;;;;;;;;;7390254;19;20015;-77
2022/05/16 02:35:46;;;;;;;2.40;1.85;;;;;;;;;;7387305;19;20123;-76
2022/05/16 02:38:13;;;;;;;3.65;1.65;;;;;;;;;;7391758;19;19995;-76
2022/05/16 02:40:39;;;;;;;2.25;1.65;;;;;;;;;;7385771;19;20084;-76
2022/05/16 02:43:04;;;;;;;2.30;1.48;;;;;;;;;;7392820;19;19999;-76
2022/05/16 02:45:31;;;;;;;1.55;1.25;;;;;;;;;;7389165;19;20216;-76
2022/05/16 02:47:57;;;;;;;2.13;1.63;;;;;;;;;;7391881;19;20062;-76
2022/05/16 02:50:23;;;;;;;3.08;1.63;;;;;;;;;;7386327;19;20014;-77
2022/05/16 02:52:55;;;;;;;3.05;1.60;;;;;;;;;;7390651;19;20014;-77
2022/05/16 02:55:21;;;;;;;3.60;1.60;;;;;;;;;;7389011;19;20049;-76
2022/05/16 02:57:47;;;;;;;3.20;1.65;;;;;;;;;;7388775;19;20579;-76
2022/05/16 03:00:16;;;;;;;2.80;1.80;;;;;;;;;;7386272;19;20002;-76
2022/05/16 03:02:41;;;;;;;7.07;1.58;;;;;;;;;;7389821;19;20007;-77
2022/05/16 03:05:07;;;;;;;3.30;1.90;;;;;;;;;;7386369;19;20006;-76
2022/05/16 03:07:34;;;;;;;2.58;1.80;;;;;;;;;;7390877;19;20126;-77
2022/05/16 03:09:59;;;;;;;3.17;1.80;;;;;;;;;;7385460;19;20027;-76
2022/05/16 03:12:24;;;;;;;1.45;1.23;;;;;;;;;;7386036;19;20099;-77
2022/05/16 03:14:50;;;;;;;2.60;1.40;;;;;;;;;;7386872;19;20041;-76
2022/05/16 03:17:15;;;;;;;2.10;1.58;;;;;;;;;;7389173;19;20026;-76
2022/05/16 03:19:40;;;;;;;3.72;1.70;;;;;;;;;;7386154;19;20014;-76
2022/05/16 03:22:06;;;;;;;2.80;1.70;;;;;;;;;;7387401;19;20007;-76
2022/05/16 03:24:32;;;;;;;3.00;1.73;;;;;;;;;;7388092;19;20014;-76
2022/05/16 03:26:58;;;;;;;2.03;1.35;;;;;;;;;;7387714;19;19999;-76
2022/05/16 03:29:24;;;;;;;2.67;1.52;;;;;;;;;;7385148;19;20080;-77
2022/05/16 03:31:50;;;;;;;3.75;1.73;;;;;;;;;;7387049;19;20011;-76
2022/05/16 03:34:15;;;;;;;4.45;2.05;;;;;;;;;;7377887;19;19998;-76
2022/05/16 03:36:40;;;;;;;4.40;2.30;;;;;;;;;;7382836;19;20015;-76
2022/05/16 03:41:51;;;;;;;4.40;1.60;;;;;;;;;;7387334;19;20019;-76
2022/05/16 03:44:17;;;;;;;1.73;1.48;;;;;;;;;;7388419;19;20008;-76
2022/05/16 03:46:43;;;;;;;2.53;1.50;;;;;;;;;;7388248;19;20017;-77
2022/05/16 03:49:09;;;;;;;1.95;1.70;;;;;;;;;;7385706;19;20389;-77
2022/05/16 03:51:35;;;;;;;2.85;1.73;;;;;;;;;;7389224;19;20014;-79
2022/05/16 03:54:01;;;;;;;4.25;1.58;;;;;;;;;;7383648;19;20572;-78
2022/05/16 03:56:27;;;;;;;1.45;1.35;;;;;;;;;;7384279;19;20014;-77
2022/05/16 03:58:54;;;;;;;1.88;1.40;;;;;;;;;;7386052;19;20007;-77
2022/05/16 04:01:21;;;;;;;2.83;1.92;;;;;;;;;;7390608;19;20006;-78
2022/05/16 04:03:47;;;;;;;2.80;1.88;;;;;;;;;;7391302;19;20396;-78
2022/05/16 04:06:15;;;;;;;3.88;1.95;;;;;;;;;;7390445;19;20030;-78
2022/05/16 04:08:42;;;;;;;4.43;1.80;;;;;;;;;;7383679;19;20018;-78
2022/05/16 04:11:08;;;;;;;2.05;1.70;;;;;;;;;;7389974;19;20524;-78
2022/05/16 04:13:33;;;;;;;2.92;1.48;;;;;;;;;;7390264;19;20013;-78
2022/05/16 04:15:59;;;;;;;2.78;1.70;;;;;;;;;;7393491;19;20011;-78
2022/05/16 04:18:25;;;;;;;2.30;1.83;;;;;;;;;;7398115;19;20018;-78
2022/05/16 04:20:50;;;;;;;5.32;2.05;;;;;;;;;;7394236;19;20018;-76
2022/05/16 04:23:15;;;;;;;1.73;1.25;;;;;;;;;;7392229;19;20082;-76
2022/05/16 04:25:41;;;;;;;2.65;1.83;;;;;;;;;;7395444;19;20375;-75
2022/05/16 04:28:07;;;;;;;5.38;1.90;;;;;;;;;;7393536;19;20006;-76
2022/05/16 04:30:34;;;;;;;2.47;1.85;;;;;;;;;;7390517;19;20030;-76
2022/05/16 04:33:00;;;;;;;3.85;1.92;;;;;;;;;;7395552;19;20395;-76
2022/05/16 04:35:25;;;;;;;6.13;2.92;;;;;;;;;;7395306;19;20015;-76
2022/05/16 04:37:51;;;;;;;2.60;2.15;;;;;;;;;;7392151;19;20014;-75
2022/05/16 04:40:17;;;;;;;2.95;2.22;;;;;;;;;;7391652;19;20083;-75
2022/05/16 04:42:44;;;;;;;2.08;1.50;;;;;;;;;;7394892;19;20002;-75
2022/05/16 04:45:11;;;;;;;1.50;1.40;;;;;;;;;;7391843;19;20069;-75
2022/05/16 04:47:36;;;;;;;1.95;1.65;;;;;;;;;;7395236;19;20002;-75
2022/05/16 04:50:03;;;;;;;3.30;1.75;;;;;;;;;;7390864;19;20018;-75
2022/05/16 04:52:29;;;;;;;1.77;1.52;;;;;;;;;;7390353;19;20406;-75
2022/05/16 04:54:54;;;;;;;3.88;1.65;;;;;;;;;;7393235;19;20444;-76
2022/05/16 04:57:20;;;;;;;1.67;1.42;;;;;;;;;;7393718;19;20070;-76
2022/05/16 04:59:49;;;;;;;5.55;1.77;;;;;;;;;;7393262;19;20006;-76
2022/05/16 05:02:15;;;;;;;3.42;1.70;;;;;;;;;;7392726;19;20011;-75
2022/05/16 05:04:40;;;;;;;5.35;2.10;;;;;;;;;;7392681;19;20014;-77
2022/05/16 05:07:06;;;;;;;2.67;1.60;;;;;;;;;;7393284;19;20007;-76
2022/05/16 05:09:31;;;;;;;3.95;1.77;;;;;;;;;;7393186;19;20089;-78
2022/05/16 05:14:57;;;;;;;3.33;2.15;;;;;;;;;;7386432;19;20556;-78
2022/05/16 05:17:23;;;;;;;2.22;1.75;;;;;;;;;;7391047;19;20115;-78
2022/05/16 05:19:48;;;;;;;3.58;2.15;;;;;;;;;;7388193;19;20465;-78
2022/05/16 05:22:13;;;;;;;6.78;1.63;;;;;;;;;;7393755;19;20029;-78
2022/05/16 05:24:39;;;;;;;3.15;2.20;;;;;;;;;;7390924;19;20353;-79
2022/05/16 05:27:05;;;;;;;5.07;2.10;;;;;;;;;;7393159;19;20006;-78
2022/05/16 05:29:30;;;;;;;6.10;2.60;;;;;;;;;;7392674;19;19994;-79
2022/05/16 05:31:55;;;;;;;3.97;2.67;;;;;;;;;;7392820;19;20461;-78
2022/05/16 05:34:20;;;;;;;3.35;2.40;;;;;;;;;;7389523;19;20118;-79
2022/05/16 05:36:46;;;;;;;5.07;2.90;;;;;;;;;;7393184;19;20022;-78
2022/05/16 05:39:13;;;;;;;7.20;2.97;;;;;;;;;;7390234;19;20017;-78
2022/05/16 05:41:39;;;;;;;3.42;2.65;;;;;;;;;;7393914;19;20464;-79
2022/05/16 05:44:05;;;;;;;7.10;2.55;;;;;;;;;;7392015;19;20006;-79
2022/05/16 05:46:35;;;;;;;5.57;2.72;;;;;;;;;;7390585;19;20015;-80
2022/05/16 05:49:01;;;;;;;6.22;2.40;;;;;;;;;;7386445;19;20022;-78
2022/05/16 05:51:26;;;;;;;6.60;2.63;;;;;;;;;;7385761;19;20158;-80
2022/05/16 05:53:51;;;;;;;2.58;2.08;;;;;;;;;;7388749;19;20043;-79
2022/05/16 05:56:17;;;;;;;5.15;2.25;;;;;;;;;;7391538;19;20041;-77
2022/05/16 05:58:42;;;;;;;3.00;2.13;;;;;;;;;;7391453;19;20009;-76
2022/05/16 06:01:09;;;;;;;4.97;1.85;;;;;;;;;;7390867;19;20017;-76
2022/05/16 06:03:35;;;;;;;3.78;2.17;;;;;;;;;;7391762;19;20012;-78
2022/05/16 06:06:00;;;;;;;2.90;2.38;;;;;;;;;;7392571;19;20006;-79
2022/05/16 06:08:25;;;;;;;3.35;2.13;;;;;;;;;;7391424;19;20011;-79
2022/05/16 06:10:51;;;;;;;3.65;2.25;;;;;;;;;;7392679;19;20011;-79
2022/05/16 06:13:18;;;;;;;5.70;2.17;;;;;;;;;;7395000;19;20161;-78
2022/05/16 06:15:43;;;;;;;3.00;2.03;;;;;;;;;;7395087;19;20495;-79
2022/05/16 06:18:09;;;;;;;5.32;2.42;;;;;;;;;;7398105;19;20035;-79
2022/05/16 06:20:34;;;;;;;3.10;1.92;;;;;;;;;;7390198;19;20034;-78
2022/05/16 06:22:59;;;;;;;6.43;2.08;;;;;;;;;;7392894;19;20038;-79
2022/05/16 06:25:31;;;;;;;4.65;2.10;;;;;;;;;;7395218;19;20011;-78
2022/05/16 06:27:59;;;;;;;7.45;2.13;;;;;;;;;;7395810;19;20047;-78
2022/05/16 06:30:24;;;;;;;5.80;2.90;;;;;;;;;;7393581;19;20002;-79
2022/05/16 06:32:50;;;;;;;3.53;2.50;;;;;;;;;;7392038;19;20005;-80
2022/05/16 06:35:16;;;;;;;4.85;2.75;;;;;;;;;;7396138;19;20426;-79
2022/05/16 06:37:41;;;;;;;6.55;2.50;;;;;;;;;;7394905;19;20014;-77
2022/05/16 06:40:07;;;;;;;3.30;2.38;;;;;;;;;;7389513;19;20042;-78
2022/05/16 06:42:33;;;;;;;6.03;2.42;;;;;;;;;;7391433;19;20006;-77
2022/05/16 06:44:58;;;;;;;3.38;2.40;;;;;;;;;;7393210;19;20017;-79
2022/05/16 06:47:24;;;;;;;4.40;2.50;;;;;;;;;;7391988;19;20023;-78
2022/05/16 06:49:50;;;;;;;5.53;2.33;;;;;;;;;;7392181;19;20016;-77
2022/05/16 06:52:16;;;;;;;2.30;2.10;;;;;;;;;;7392128;19;20092;-78
2022/05/16 06:54:42;;;;;;;7.25;2.47;;;;;;;;;;7394202;19;20315;-77
2022/05/16 06:57:08;;;;;;;11.70;3.00;;;;;;;;;;7388679;19;20011;-78
2022/05/16 06:59:33;;;;;;;10.38;2.83;;;;;;;;;;7387405;19;20003;-77
2022/05/16 07:01:59;;;;;;;10.63;2.90;;;;;;;;;;7386482;19;20346;-79
2022/05/16 07:04:24;;;;;;;4.47;2.65;;;;;;;;;;7391632;19;20010;-77
2022/05/16 07:06:49;;;;;;;5.80;3.00;;;;;;;;;;7392565;19;20019;-78
2022/05/16 07:09:14;;;;;;;6.05;2.95;;;;;;;;;;7392694;19;20086;-77
2022/05/16 07:11:40;;;;;;;8.00;3.03;;;;;;;;;;7386821;19;20002;-76
2022/05/16 07:14:05;;;;;;;9.73;2.70;;;;;;;;;;7386700;19;20014;-78
2022/05/16 07:16:30;;;;;;;5.60;2.67;;;;;;;;;;7390947;19;20002;-77
2022/05/16 07:18:56;;;;;;;3.55;2.60;;;;;;;;;;7388040;19;19998;-76
2022/05/16 07:21:21;;;;;;;3.83;2.53;;;;;;;;;;7388119;19;20007;-78
2022/05/16 07:23:47;;;;;;;4.32;2.33;;;;;;;;;;7387652;19;20013;-77
2022/05/16 07:28:56;;;;;;;3.15;2.42;;;;;;;;;;7387095;19;20019;-77
2022/05/16 07:31:21;;;;;;;4.13;2.60;;;;;;;;;;7388841;19;19998;-78
2022/05/16 07:33:47;;;;;;;4.00;2.30;;;;;;;;;;7385257;19;20530;-79
2022/05/16 07:36:12;;;;;;;2.65;2.10;;;;;;;;;;7386956;19;20022;-79
2022/05/16 07:38:37;;;;;;;2.92;2.40;;;;;;;;;;7383655;19;20033;-78
2022/05/16 07:41:03;;;;;;;3.20;2.10;;;;;;;;;;7377256;19;20222;-81
2022/05/16 07:43:29;;;;;;;4.30;2.15;;;;;;;;;;7387791;19;20006;-77
2022/05/16 07:45:54;;;;;;;3.70;2.22;;;;;;;;;;7381903;19;20017;-77
2022/05/16 07:48:20;;;;;;;3.22;2.03;;;;;;;;;;7384764;19;20367;-79
2022/05/16 07:50:48;;;;;;;2.10;1.88;;;;;;;;;;7383088;19;20014;-77
2022/05/16 07:53:14;;;;;;;3.60;2.33;;;;;;;;;;7384129;19;20014;-78
2022/05/16 07:55:45;;;;;;;6.15;1.75;;;;;;;;;;7383207;19;20034;-79
2022/05/16 07:58:10;;;;;;;6.22;1.50;;;;;;;;;;7384324;19;20034;-79
2022/05/16 08:00:39;;;;;;;5.55;1.70;;;;;;;;;;7381283;19;20320;-78
2022/05/16 08:03:04;;;;;;;2.15;1.65;;;;;;;;;;7383292;19;20014;-78
2022/05/16 08:05:30;;;;;;;2.42;1.75;;;;;;;;;;7387219;19;20043;-78
2022/05/16 08:10:40;;;;;;;2.63;1.50;;;;;;;;;;7384038;19;20121;-80
2022/05/16 08:13:08;;;;;;;2.72;1.70;;;;;;;;;;7386093;19;20083;-81
2022/05/16 08:15:36;;;;;;;3.75;1.60;;;;;;;;;;7390794;19;20492;-79
2022/05/16 08:18:02;;;;;;;3.20;1.67;;;;;;;;;;7384007;19;20529;-78
2022/05/16 08:20:29;;;;;;;2.53;1.50;;;;;;;;;;7386967;19;20022;-79
2022/05/16 08:22:54;;;;;;;5.90;1.38;;;;;;;;;;7384831;19;20030;-78
2022/05/16 08:25:20;;;;;;;6.82;1.63;;;;;;;;;;7385121;19;20419;-78
2022/05/16 08:27:45;;;;;;;5.18;1.60;;;;;;;;;;7386370;19;20015;-81
2022/05/16 08:30:12;;;;;;;3.03;1.58;;;;;;;;;;7387527;19;20010;-78
2022/05/16 08:32:37;;;;;;;2.05;1.30;;;;;;;;;;7381158;19;20082;-79
2022/05/16 08:35:06;;;;;;;4.25;1.55;;;;;;;;;;7385897;19;20002;-78
2022/05/16 08:40:47;;;;;;;3.10;1.40;;;;;;;;;;7379828;19;20087;-80
2022/05/16 08:43:18;;;;;;;3.55;1.42;;;;;;;;;;7382718;19;20006;-79
2022/05/16 08:45:59;;;;;;;1.20;1.10;;;;;;;;;;7384189;19;20039;-78
2022/05/16 08:48:32;;;;;;;3.25;1.10;;;;;;;;;;7383881;19;20481;-79
2022/05/16 08:51:04;;;;;;;1.10;1.00;;;;;;;;;;7385626;19;20029;-79
2022/05/16 08:53:42;;;;;;;2.83;1.08;;;;;;;;;;7389587;19;20014;-78
2022/05/16 08:56:10;;;;;;;2.25;1.17;;;;;;;;;;7387767;19;20034;-79
2022/05/16 08:59:08;;;;;;;2.35;0.80;;;;;;;;;;7386755;19;20018;-81
2022/05/16 09:01:52;;;;;;;1.73;0.80;;;;;;;;;;7384968;19;20026;-78
2022/05/16 09:04:24;;;;;;;1.23;0.95;;;;;;;;;;7392177;19;20529;-80
2022/05/16 09:07:02;;;;;;;1.65;1.02;;;;;;;;;;7394671;19;20018;-80
2022/05/16 09:09:55;;;;;;;2.88;0.80;;;;;;;;;;7394497;19;20011;-79
2022/05/16 09:12:41;;;;;;;2.55;0.90;;;;;;;;;;7394354;19;20006;-77
2022/05/16 09:15:13;;;;;;;1.83;1.10;;;;;;;;;;7393821;19;20469;-82
2022/05/16 09:17:48;;;;;;;5.25;0.90;;;;;;;;;;7391987;19;20014;-79
2022/05/16 09:20:32;;;;;;;1.10;0.80;;;;;;;;;;7392009;19;20022;-77
2022/05/16 09:23:16;;;;;;;2.08;1.08;;;;;;;;;;7396702;19;20006;-78
2022/05/16 09:25:52;;;;;;;2.05;0.90;;;;;;;;;;7399344;19;20109;-79
2022/05/16 09:28:34;;;;;;;2.08;1.00;;;;;;;;;;7400640;19;20011;-79
2022/05/16 09:31:10;;;;;;;3.00;1.00;;;;;;;;;;7393087;19;20546;-79
2022/05/16 09:33:37;;;;;;;;;;;;;;;;;;7399496;19;20040;-79
2022/05/16 09:36:06;;;;;;;3.83;1.10;;;;;;;;;;7395312;19;19934;-78
2022/05/16 09:38:32;;;;;;;3.38;1.23;;;;;;;;;;7393996;19;20002;-78
2022/05/16 09:41:00;;;;;;;1.35;0.90;;;;;;;;;;7395107;19;20847;-78
2022/05/16 09:43:34;;;;;;;1.65;1.00;;;;;;;;;;7394369;19;20014;-77
2022/05/16 09:46:25;;;;;;;1.42;1.00;;;;;;;;;;7395849;19;20517;-78
2022/05/16 09:49:12;;;;;;;2.22;1.00;;;;;;;;;;7392885;19;20019;-79
2022/05/16 09:51:40;;;;;;;2.55;1.20;;;;;;;;;;7395300;19;20011;-78
2022/05/16 09:54:24;;;;;;;2.72;1.15;;;;;;;;;;7393297;19;20028;-81
2022/05/16 09:57:06;;;;;;;3.00;1.17;;;;;;;;;;7396929;19;20022;-79
2022/05/16 09:59:44;;;;;;;2.72;1.00;;;;;;;;;;7395513;19;20120;-80
2022/05/16 10:02:22;;;;;;;2.22;1.38;;;;;;;;;;7395753;19;20058;-80
2022/05/16 10:04:52;;;;;;;3.60;1.15;;;;;;;;;;7395241;19;20006;-78
2022/05/16 10:07:26;;;;;;;1.52;1.00;;;;;;;;;;7395213;19;20007;-78
2022/05/16 10:09:53;;;;;;;1.27;0.90;;;;;;;;;;7394437;19;20409;-79
2022/05/16 10:12:21;;;;;;;4.47;1.10;;;;;;;;;;7400729;19;20014;-79
2022/05/16 10:14:47;;;;;;;1.73;1.00;;;;;;;;;;7402954;19;20034;-79
2022/05/16 10:17:19;;;;;;;2.83;1.35;;;;;;;;;;7401803;19;20058;-81
2022/05/16 10:19:45;;;;;;;4.88;1.10;;;;;;;;;;7400335;19;20034;-79
2022/05/16 10:22:15;;;;;;;3.28;1.38;;;;;;;;;;7399886;19;20007;-81
2022/05/16 10:24:45;;;;;;;1.98;1.20;;;;;;;;;;7396390;19;20011;-79
2022/05/16 10:27:12;;;;;;;2.80;1.23;;;;;;;;;;7399599;19;20029;-79
2022/05/16 10:29:42;;;;;;;2.90;1.27;;;;;;;;;;7398761;19;20030;-79
2022/05/16 10:35:07;;;;;;;1.80;1.30;;;;;;;;;;7400739;19;20049;-78
2022/05/16 10:37:36;;;;;;;3.38;1.67;;;;;;;;;;7399565;19;20157;-80
2022/05/16 10:40:10;;;;;;;1.77;1.20;;;;;;;;;;7394684;19;20014;-78
2022/05/16 10:42:51;;;;;;;5.15;1.50;;;;;;;;;;7399179;19;20007;-79
2022/05/16 10:45:20;;;;;;;1.77;1.55;;;;;;;;;;7395680;19;20006;-78
2022/05/16 10:48:09;;;;;;;2.38;1.50;;;;;;;;;;7397909;19;20397;-78
2022/05/16 10:50:50;;;;;;;2.75;1.45;;;;;;;;;;7391305;19;20686;-78
2022/05/16 10:53:56;;;;;;;2.00;1.30;;;;;;;;;;7393833;19;20074;-81
2022/05/16 10:56:40;;;;;;;1.73;1.40;;;;;;;;;;7395086;19;20015;-82
2022/05/16 10:59:14;;;;;;;6.25;1.70;;;;;;;;;;7392900;19;20023;-80
2022/05/16 11:01:48;;;;;;;1.67;1.33;;;;;;;;;;7396249;19;20031;-81
2022/05/16 11:04:38;;;;;;;2.70;1.23;;;;;;;;;;7400918;19;20018;-79
2022/05/16 11:07:20;;;;;;;1.30;1.20;;;;;;;;;;7404513;19;20056;-81
2022/05/16 11:10:10;;;;;;;1.60;1.10;;;;;;;;;;7404535;19;20042;-80
2022/05/16 11:12:42;;;;;;;6.47;1.45;;;;;;;;;;7399304;19;20123;-79
2022/05/16 11:15:12;;;;;;;3.40;1.30;;;;;;;;;;7399663;19;20017;-80
2022/05/16 11:17:51;;;;;;;1.73;1.25;;;;;;;;;;7404114;19;20023;-79
2022/05/16 11:20:26;;;;;;;1.27;0.98;;;;;;;;;;7402917;19;20010;-82
2022/05/16 11:23:10;;;;;;;1.33;1.02;;;;;;;;;;7400771;19;20006;-80
2022/05/16 11:26:02;;;;;;;2.33;1.25;;;;;;;;;;7401962;19;20007;-79
2022/05/16 11:29:16;;;;;;;5.45;1.33;;;;;;;;;;7396973;19;20410;-79
2022/05/16 11:31:28;;;;;;;2.47;1.20;;;;;;;;;;7392824;19;20299;-79
2022/05/16 11:33:54;;;;;;;1.45;1.05;;;;;;;;;;7394884;19;20040;-80
2022/05/16 11:37:13;;;;;;;2.30;1.10;;;;;;;;;;7402790;19;20010;-80
2022/05/16 11:39:51;;;;;;;2.95;0.95;;;;;;;;;;7398694;19;20091;-78
2022/05/16 11:42:41;;;;;;;2.80;1.00;;;;;;;;;;7390932;19;20006;-80
2022/05/16 11:45:29;;;;;;;1.85;1.05;;;;;;;;;;7394760;19;20477;-79
2022/05/16 11:48:20;;;;;;;2.42;0.90;;;;;;;;;;7394938;19;20006;-79
2022/05/16 11:51:15;;;;;;;1.17;1.08;;;;;;;;;;7387084;19;20048;-78
2022/05/16 11:53:50;;;;;;;3.42;1.40;;;;;;;;;;7393610;19;20493;-79
2022/05/16 12:02:22;;;;;;;1.90;0.93;;;;;;;;;;7392578;19;20019;-79
2022/05/16 12:04:51;;;;;;;2.13;1.15;;;;;;;;;;7390013;19;20058;-78
2022/05/16 12:07:38;;;;;;;2.00;1.63;;;;;;;;;;7387861;19;20391;-78
2022/05/16 12:10:15;;;;;;;1.45;1.08;;;;;;;;;;7383871;19;20007;-78
2022/05/16 12:12:42;;;;;;;1.95;1.20;;;;;;;;;;7391118;19;20612;-78
2022/05/16 12:15:11;;;;;;;2.35;1.00;;;;;;;;;;7385813;19;20051;-78
2022/05/16 12:17:38;;;;;;;2.95;1.27;;;;;;;;;;7394691;19;20010;-80
2022/05/16 12:20:12;;;;;;;3.10;1.20;;;;;;;;;;7386288;19;20084;-80
2022/05/16 12:22:37;;;;;;;1.10;1.00;;;;;;;;;;7386886;19;20014;-79
2022/05/16 12:25:29;;;;;;;2.50;1.20;;;;;;;;;;7388461;19;20033;-79
2022/05/16 12:28:12;;;;;;;2.35;1.00;;;;;;;;;;7387589;19;20321;-79
2022/05/16 12:30:38;;;;;;;2.28;1.23;;;;;;;;;;7383849;19;20070;-80
2022/05/16 12:33:23;;;;;;;1.42;1.02;;;;;;;;;;7388428;19;20020;-79
2022/05/16 12:35:51;;;;;;;6.38;1.30;;;;;;;;;;7390533;19;20014;-81
2022/05/16 12:38:18;;;;;;;3.55;1.30;;;;;;;;;;7392177;19;20550;-79
2022/05/16 12:41:08;;;;;;;2.03;1.30;;;;;;;;;;7387626;19;20027;-79
2022/05/16 12:43:48;;;;;;;1.58;1.20;;;;;;;;;;7392986;19;20504;-80
2022/05/16 12:46:42;;;;;;;2.72;1.30;;;;;;;;;;7394390;19;20034;-80
2022/05/16 12:49:34;;;;;;;3.40;1.50;;;;;;;;;;7392831;19;20006;-79
2022/05/16 12:52:06;;;;;;;1.92;1.30;;;;;;;;;;7397069;19;20311;-80
2022/05/16 12:54:48;;;;;;;2.05;1.25;;;;;;;;;;7396895;19;20180;-79
2022/05/16 12:57:22;;;;;;;1.48;1.10;;;;;;;;;;7391156;19;20010;-78
2022/05/16 13:00:08;;;;;;;3.47;1.30;;;;;;;;;;7394253;19;20022;-79
2022/05/16 13:03:02;;;;;;;1.77;0.98;;;;;;;;;;7395929;19;20145;-79
2022/05/16 13:05:45;;;;;;;2.72;1.40;;;;;;;;;;7391417;19;20017;-82
2022/05/16 13:08:42;;;;;;;2.15;1.40;;;;;;;;;;7395789;19;20017;-80
2022/05/16 13:11:14;;;;;;;3.58;1.50;;;;;;;;;;7395647;19;20450;-80
2022/05/16 13:14:05;;;;;;;1.80;1.20;;;;;;;;;;7394700;19;20007;-80
2022/05/16 13:16:36;;;;;;;2.60;1.48;;;;;;;;;;7398518;19;20042;-79
2022/05/16 13:19:08;;;;;;;3.58;1.30;;;;;;;;;;7396499;19;20744;-79
2022/05/16 13:21:45;;;;;;;1.80;1.58;;;;;;;;;;7396868;19;20393;-79
2022/05/16 13:24:13;;;;;;;3.25;1.33;;;;;;;;;;7394364;19;20006;-79
2022/05/16 13:29:33;;;;;;;2.65;1.20;;;;;;;;;;7387477;19;20041;-79
2022/05/16 13:31:59;;;;;;;;;;;;;;;;;;7388271;19;20010;-79
2022/05/16 13:34:42;;;;;;;2.72;1.10;;;;;;;;;;7390857;19;19910;-81
2022/05/16 13:37:10;;;;;;;1.38;1.00;;;;;;;;;;7396211;19;20002;-79
2022/05/16 13:39:39;;;;;;;3.00;1.55;;;;;;;;;;7396106;19;20014;-79
2022/05/16 13:42:06;;;;;;;4.30;1.20;;;;;;;;;;7401100;19;20015;-80
2022/05/16 13:44:39;;;;;;;1.90;1.08;;;;;;;;;;7401704;19;20035;-80
2022/05/16 13:47:08;;;;;;;2.27;1.10;;;;;;;;;;7395991;19;20145;-79
2022/05/16 13:49:34;;;;;;;2.38;1.40;;;;;;;;;;7379639;19;20521;-79
2022/05/16 13:52:01;;;;;;;1.90;1.20;;;;;;;;;;7393129;19;20081;-81
2022/05/16 13:54:29;;;;;;;3.55;1.17;;;;;;;;;;7390201;19;20058;-81
2022/05/16 13:56:57;;;;;;;2.42;1.00;;;;;;;;;;7395074;19;20011;-80
2022/05/16 13:59:24;;;;;;;3.83;1.33;;;;;;;;;;7396975;19;20038;-81
2022/05/16 14:02:04;;;;;;;4.90;1.17;;;;;;;;;;7392839;19;20003;-81
2022/05/16 14:04:31;;;;;;;4.32;1.20;;;;;;;;;;7392244;19;20007;-78
2022/05/16 14:07:20;;;;;;;2.20;1.10;;;;;;;;;;7394354;19;20010;-79
2022/05/16 14:09:59;;;;;;;2.05;1.13;;;;;;;;;;7391515;19;20017;-79
2022/05/16 14:12:33;;;;;;;1.67;1.10;;;;;;;;;;7393475;19;20055;-80
2022/05/16 14:14:59;;;;;;;1.73;1.13;;;;;;;;;;7393956;19;20027;-78
2022/05/16 14:17:40;;;;;;;1.75;1.20;;;;;;;;;;7397281;19;20026;-80
2022/05/16 14:20:16;;;;;;;3.08;1.10;;;;;;;;;;7394037;19;20690;-80
2022/05/16 14:22:47;;;;;;;3.63;1.23;;;;;;;;;;7397514;19;20006;-80
2022/05/16 14:25:28;;;;;;;3.78;1.20;;;;;;;;;;7397290;19;20060;-78
2022/05/16 14:28:02;;;;;;;1.70;1.10;;;;;;;;;;7398410;19;20014;-79
2022/05/16 14:30:29;;;;;;;;;;;;;;;;;;7395150;19;20018;-81
2022/05/16 14:33:01;;;;;;;4.88;1.52;;;;;;;;;;7396699;19;19938;-81
2022/05/16 14:35:28;;;;;;;6.65;1.80;;;;;;;;;;7392278;19;20108;-81
2022/05/16 14:37:55;;;;;;;3.55;1.92;;;;;;;;;;7394853;19;20191;-79
2022/05/16 14:40:24;;;;;;;4.38;1.60;;;;;;;;;;7390471;19;20013;-81
2022/05/16 14:43:33;;;;;;;8.77;2.17;;;;;;;;;;7388628;19;20491;-79
2022/05/16 14:49:05;;;;;;;6.35;1.70;;;;;;;;;;7396660;19;20006;-81
2022/05/16 14:51:33;;;;;;;5.57;1.88;;;;;;;;;;7398237;19;20014;-80
2022/05/16 14:53:58;;;;;;;7.15;1.70;;;;;;;;;;7397808;19;20014;-82
2022/05/16 14:56:36;;;;;;;3.03;1.40;;;;;;;;;;7395783;19;20003;-82
2022/05/16 14:59:02;;;;;;;3.75;1.30;;;;;;;;;;7399416;19;20378;-83
2022/05/16 15:04:11;;;;;;;2.90;1.25;;;;;;;;;;7392172;19;20523;-82
2022/05/16 15:06:40;;;;;;;6.47;1.20;;;;;;;;;;7392983;19;20014;-82
2022/05/16 15:09:09;;;;;;;1.65;1.15;;;;;;;;;;7391428;19;20062;-81
2022/05/16 15:11:42;;;;;;;3.60;1.13;;;;;;;;;;7391732;19;20375;-80
2022/05/16 15:14:08;;;;;;;4.82;1.23;;;;;;;;;;7389808;19;20724;-82
2022/05/16 15:16:33;;;;;;;1.95;1.13;;;;;;;;;;7397113;19;20041;-82
2022/05/16 15:19:00;;;;;;;3.25;1.30;;;;;;;;;;7394607;19;20362;-83
2022/05/16 15:21:25;;;;;;;4.63;1.10;;;;;;;;;;7397828;19;20029;-83
2022/05/16 15:23:51;;;;;;;2.38;1.40;;;;;;;;;;7395656;19;20010;-80
2022/05/16 15:26:18;;;;;;;2.53;1.40;;;;;;;;;;7379004;19;20338;-81
2022/05/16 15:28:43;;;;;;;2.53;1.10;;;;;;;;;;7389057;19;20069;-81
2022/05/16 15:31:09;;;;;;;2.13;0.93;;;;;;;;;;7392650;19;20043;-81
2022/05/16 15:33:35;;;;;;;5.35;1.38;;;;;;;;;;7391047;19;20436;-80
2022/05/16 15:36:03;;;;;;;5.75;1.20;;;;;;;;;;7388198;19;20035;-79
2022/05/16 15:38:28;;;;;;;4.47;1.10;;;;;;;;;;7386536;19;20031;-79
2022/05/16 15:40:54;;;;;;;1.20;0.90;;;;;;;;;;7386582;19;20010;-79